Time;durP1;ratioP1;P1;durP2;ratioP2;P2;SDS_P1;SDS_P2;PMS_P1;PMS_P2;Temp;Humidity;BMP_temperature;BMP_pressure;BME280_temperature;BME280_humidity;BME280_pressure;Samples;Min_cycle;Max_cycle;Signal;HPM_P1;HPM_P2
2024/01/13 00:02:13;;;;;;;128.70;45.70;;;-4.60;99.90;;;;;;5041195;28;20546;-81
2024/01/13 00:04:38;;;;;;;130.47;45.13;;;-4.60;99.90;;;;;;5042132;28;20672;-81
2024/01/13 00:07:04;;;;;;;125.07;43.83;;;-4.60;99.90;;;;;;5040230;28;20151;-81
2024/01/13 00:09:29;;;;;;;115.07;42.23;;;-4.50;99.90;;;;;;5039734;28;20064;-82
2024/01/13 00:11:55;;;;;;;131.33;45.07;;;-4.50;99.90;;;;;;5042084;28;20029;-81
2024/01/13 00:14:21;;;;;;;111.63;39.80;;;-4.40;99.90;;;;;;5041902;28;20114;-82
2024/01/13 00:16:46;;;;;;;107.93;39.80;;;-4.40;99.90;;;;;;5041774;28;20499;-80
2024/01/13 00:19:12;;;;;;;99.00;37.67;;;-4.40;99.90;;;;;;5040933;28;20059;-83
2024/01/13 00:21:38;;;;;;;101.87;38.33;;;-4.40;99.90;;;;;;5041710;28;20036;-83
2024/01/13 00:24:05;;;;;;;116.90;41.20;;;-4.40;99.90;;;;;;5041805;28;20029;-82
2024/01/13 00:26:30;;;;;;;114.73;40.50;;;-4.40;99.90;;;;;;5041011;28;20041;-82
2024/01/13 00:28:56;;;;;;;110.13;37.70;;;-4.40;99.90;;;;;;5040133;28;20078;-82
2024/01/13 00:31:21;;;;;;;110.67;38.70;;;-4.40;99.90;;;;;;5041734;28;20041;-81
2024/01/13 00:33:47;;;;;;;111.77;41.23;;;-4.40;99.90;;;;;;5041386;28;20048;-82
2024/01/13 00:36:13;;;;;;;102.03;37.23;;;-4.40;99.90;;;;;;5040776;28;20089;-82
2024/01/13 00:38:38;;;;;;;103.67;38.03;;;-4.40;99.90;;;;;;5041158;28;20029;-82
2024/01/13 00:41:05;;;;;;;105.40;38.57;;;-4.40;99.90;;;;;;5037675;28;20032;-82
2024/01/13 00:43:30;;;;;;;108.97;39.47;;;-4.40;99.90;;;;;;5040186;28;20171;-81
2024/01/13 00:45:56;;;;;;;107.83;38.63;;;-4.40;99.90;;;;;;5039258;28;20059;-83
2024/01/13 00:48:21;;;;;;;115.47;39.27;;;-4.40;99.90;;;;;;5040538;28;20064;-81
2024/01/13 00:50:47;;;;;;;117.87;37.97;;;-4.40;99.90;;;;;;5040972;28;20134;-81
2024/01/13 00:53:12;;;;;;;112.53;39.03;;;-4.40;99.90;;;;;;5041414;28;20423;-81
2024/01/13 00:55:38;;;;;;;116.50;41.80;;;-4.40;99.90;;;;;;5039488;28;20037;-81
2024/01/13 00:58:03;;;;;;;116.70;41.43;;;-4.40;99.90;;;;;;5043288;28;20055;-81
2024/01/13 01:00:29;;;;;;;128.83;43.33;;;-4.40;99.90;;;;;;5044052;28;20039;-80
2024/01/13 01:02:55;;;;;;;129.07;43.90;;;-4.40;99.90;;;;;;5043746;28;20087;-80
2024/01/13 01:05:20;;;;;;;139.67;44.07;;;-4.40;99.90;;;;;;5044256;28;20025;-81
2024/01/13 01:07:47;;;;;;;136.90;46.27;;;-4.40;99.90;;;;;;5043476;28;20660;-82
2024/01/13 01:10:13;;;;;;;148.00;48.63;;;-4.40;99.90;;;;;;5045980;28;20163;-80
2024/01/13 01:12:39;;;;;;;152.70;47.60;;;-4.40;99.90;;;;;;5047261;28;20487;-81
2024/01/13 01:15:05;;;;;;;153.67;50.30;;;-4.40;99.90;;;;;;5056555;28;20021;-83
2024/01/13 01:17:30;;;;;;;153.67;50.77;;;-4.30;99.90;;;;;;5057333;28;20029;-82
2024/01/13 01:19:56;;;;;;;154.63;49.10;;;-4.40;99.90;;;;;;5045972;28;20158;-83
2024/01/13 01:22:22;;;;;;;157.27;49.03;;;-4.40;99.90;;;;;;5046227;28;20029;-82
2024/01/13 01:24:48;;;;;;;155.80;51.17;;;-4.40;99.90;;;;;;5045597;28;20032;-81
2024/01/13 01:27:13;;;;;;;160.73;50.53;;;-4.40;99.90;;;;;;5045587;28;20033;-81
2024/01/13 01:29:39;;;;;;;143.30;47.20;;;-4.40;99.90;;;;;;5044697;28;20033;-82
2024/01/13 01:32:05;;;;;;;152.83;48.23;;;-4.40;99.90;;;;;;5045413;28;20049;-81
2024/01/13 01:34:30;;;;;;;155.77;49.00;;;-4.50;99.90;;;;;;5045196;28;20041;-81
2024/01/13 01:36:56;;;;;;;159.70;48.03;;;-4.50;99.90;;;;;;5045189;28;20423;-82
2024/01/13 01:39:21;;;;;;;149.53;46.40;;;-4.50;99.90;;;;;;5045292;28;21365;-81
2024/01/13 01:41:47;;;;;;;151.37;48.57;;;-4.50;99.90;;;;;;5046859;28;20037;-81
2024/01/13 01:44:12;;;;;;;143.07;47.57;;;-4.50;99.90;;;;;;5045137;28;20045;-82
2024/01/13 01:46:39;;;;;;;150.73;48.60;;;-4.50;99.90;;;;;;5044837;28;20029;-82
2024/01/13 01:49:05;;;;;;;144.37;47.73;;;-4.50;99.90;;;;;;5044453;28;20024;-84
2024/01/13 01:51:32;;;;;;;153.20;48.57;;;-4.60;99.90;;;;;;5046061;28;20040;-82
2024/01/13 01:53:58;;;;;;;129.70;44.30;;;-4.60;99.90;;;;;;5045240;28;20033;-83
2024/01/13 01:56:28;;;;;;;143.53;48.50;;;-4.50;99.90;;;;;;5043830;28;20039;-81
2024/01/13 01:58:54;;;;;;;135.43;46.03;;;-4.50;99.90;;;;;;5046615;28;20033;-81
2024/01/13 02:01:22;;;;;;;136.60;44.93;;;-4.60;99.90;;;;;;5044350;28;20086;-81
2024/01/13 02:03:48;;;;;;;129.00;44.00;;;-4.50;99.90;;;;;;5045156;28;20035;-81
2024/01/13 02:06:14;;;;;;;126.13;45.63;;;-4.60;99.90;;;;;;5045275;28;20057;-81
2024/01/13 02:08:40;;;;;;;124.37;44.40;;;-4.60;99.90;;;;;;5043961;28;20048;-82
2024/01/13 02:11:07;;;;;;;119.77;44.27;;;-4.60;99.90;;;;;;5045490;28;20151;-81
2024/01/13 02:13:32;;;;;;;123.43;46.23;;;-4.60;99.90;;;;;;5044885;28;20031;-82
2024/01/13 02:15:58;;;;;;;114.57;45.90;;;-4.50;99.90;;;;;;5045378;28;20025;-82
2024/01/13 02:18:23;;;;;;;114.67;42.97;;;-4.60;99.90;;;;;;5044964;28;20035;-81
2024/01/13 02:20:49;;;;;;;115.93;43.17;;;-4.60;99.90;;;;;;5044026;28;20087;-83
2024/01/13 02:23:14;;;;;;;132.77;46.20;;;-4.60;99.90;;;;;;5044335;28;20872;-81
2024/01/13 02:25:41;;;;;;;129.83;45.53;;;-4.60;99.90;;;;;;5043175;28;20047;-80
2024/01/13 02:28:06;;;;;;;133.03;44.87;;;-4.60;99.90;;;;;;5042766;28;21505;-83
2024/01/13 02:30:32;;;;;;;127.07;45.67;;;-4.60;99.90;;;;;;5042453;28;20048;-82
2024/01/13 02:32:58;;;;;;;126.43;45.10;;;-4.60;99.90;;;;;;5044386;28;20029;-83
2024/01/13 02:35:23;;;;;;;109.20;41.07;;;-4.60;99.90;;;;;;5042895;28;20119;-82
2024/01/13 02:37:49;;;;;;;113.70;41.87;;;-4.60;99.90;;;;;;5042592;28;20052;-81
2024/01/13 02:40:14;;;;;;;115.07;41.03;;;-4.60;99.90;;;;;;5041451;28;20029;-80
2024/01/13 02:42:40;;;;;;;112.50;41.33;;;-4.60;99.90;;;;;;5041237;28;20159;-80
2024/01/13 02:45:06;;;;;;;114.60;41.63;;;-4.60;99.90;;;;;;5040498;28;21122;-81
2024/01/13 02:47:44;;;;;;;112.50;43.57;;;-4.70;99.90;;;;;;5040118;28;20080;-82
2024/01/13 02:50:10;;;;;;;124.43;45.67;;;-4.70;99.90;;;;;;5040132;28;20035;-81
2024/01/13 02:52:36;;;;;;;112.47;43.97;;;-4.70;99.90;;;;;;5039765;28;20056;-81
2024/01/13 02:55:01;;;;;;;104.50;40.63;;;-4.70;99.90;;;;;;5040202;28;20504;-81
2024/01/13 02:57:27;;;;;;;116.60;44.10;;;-4.70;99.90;;;;;;5040597;28;20020;-82
2024/01/13 02:59:52;;;;;;;108.23;42.07;;;-4.70;99.90;;;;;;5039769;28;20222;-81
2024/01/13 03:02:18;;;;;;;117.23;45.87;;;-4.70;99.90;;;;;;5040616;28;20104;-81
2024/01/13 03:04:43;;;;;;;110.47;42.30;;;-4.70;99.90;;;;;;5041019;28;20039;-80
2024/01/13 03:07:09;;;;;;;105.63;42.87;;;-4.70;99.90;;;;;;5040893;28;20033;-80
2024/01/13 03:09:35;;;;;;;109.27;41.50;;;-4.70;99.90;;;;;;5041074;28;20029;-82
2024/01/13 03:12:00;;;;;;;108.60;42.90;;;-4.70;99.90;;;;;;5048852;28;20033;-80
2024/01/13 03:14:26;;;;;;;104.53;40.57;;;-4.70;99.90;;;;;;5044200;28;20045;-83
2024/01/13 03:16:52;;;;;;;113.67;41.33;;;-4.70;99.90;;;;;;5043312;28;20032;-81
2024/01/13 03:19:18;;;;;;;106.43;40.33;;;-4.70;99.90;;;;;;5042780;28;20033;-81
2024/01/13 03:21:44;;;;;;;105.03;40.90;;;-4.80;99.90;;;;;;5042825;28;20101;-82
2024/01/13 03:24:09;;;;;;;110.50;42.57;;;-4.80;99.90;;;;;;5042392;28;20530;-81
2024/01/13 03:26:35;;;;;;;104.00;41.37;;;-4.80;99.90;;;;;;5042459;28;20059;-81
2024/01/13 03:29:01;;;;;;;105.07;39.20;;;-4.80;99.90;;;;;;5042479;28;20033;-82
2024/01/13 03:31:26;;;;;;;109.10;40.33;;;-4.80;99.90;;;;;;5043906;28;20484;-82
2024/01/13 03:33:52;;;;;;;103.23;40.57;;;-4.80;99.90;;;;;;5042204;28;20049;-81
2024/01/13 03:36:17;;;;;;;109.73;40.73;;;-4.80;99.90;;;;;;5042710;28;21301;-81
2024/01/13 03:38:43;;;;;;;112.33;44.43;;;-4.90;99.90;;;;;;5042539;28;20605;-83
2024/01/13 03:41:09;;;;;;;108.50;42.57;;;-4.90;99.90;;;;;;5042401;28;20067;-80
2024/01/13 03:43:35;;;;;;;108.47;41.33;;;-4.90;99.90;;;;;;5041945;28;20105;-81
2024/01/13 03:46:01;;;;;;;99.23;39.10;;;-4.90;99.90;;;;;;5042504;28;20116;-81
2024/01/13 03:48:27;;;;;;;100.43;40.87;;;-5.00;99.90;;;;;;5041060;28;20029;-80
2024/01/13 03:50:52;;;;;;;98.50;39.33;;;-4.90;99.90;;;;;;5041963;28;20703;-82
2024/01/13 03:53:18;;;;;;;90.53;36.33;;;-5.00;99.90;;;;;;5043077;28;20103;-81
2024/01/13 03:55:44;;;;;;;86.47;37.23;;;-5.00;99.90;;;;;;5042208;28;20029;-81
2024/01/13 03:58:09;;;;;;;88.87;36.87;;;-5.00;99.90;;;;;;5044000;28;20522;-81
2024/01/13 04:00:35;;;;;;;89.47;37.37;;;-5.00;99.90;;;;;;5042517;28;20168;-82
2024/01/13 04:03:01;;;;;;;87.17;36.20;;;-5.10;99.90;;;;;;5042992;28;20021;-84
2024/01/13 04:05:27;;;;;;;92.30;37.30;;;-5.10;99.90;;;;;;5042200;28;20033;-81
2024/01/13 04:07:52;;;;;;;92.87;36.87;;;-5.10;99.90;;;;;;5040371;28;20044;-83
2024/01/13 04:10:18;;;;;;;89.60;36.80;;;-5.10;99.90;;;;;;5041886;28;20154;-82
2024/01/13 04:12:45;;;;;;;90.33;36.83;;;-5.10;99.90;;;;;;5041773;28;20693;-81
2024/01/13 04:15:11;;;;;;;90.27;37.97;;;-5.10;99.90;;;;;;5041547;28;20201;-83
2024/01/13 04:17:37;;;;;;;79.23;33.47;;;-5.10;99.90;;;;;;5041338;28;20032;-81
2024/01/13 04:20:03;;;;;;;87.20;36.73;;;-5.20;99.90;;;;;;5042175;28;20447;-83
2024/01/13 04:22:29;;;;;;;82.17;35.53;;;-5.10;99.90;;;;;;5041793;28;20036;-81
2024/01/13 04:24:54;;;;;;;89.93;36.13;;;-5.20;99.90;;;;;;5041962;28;20074;-83
2024/01/13 04:27:20;;;;;;;83.50;35.33;;;-5.20;99.90;;;;;;5042360;28;20138;-81
2024/01/13 04:29:45;;;;;;;90.63;37.73;;;-5.20;99.90;;;;;;5041855;28;20044;-81
2024/01/13 04:32:11;;;;;;;86.37;36.77;;;-5.20;99.90;;;;;;5042125;28;20048;-82
2024/01/13 04:34:37;;;;;;;90.63;36.37;;;-5.30;99.90;;;;;;5042858;28;20033;-83
2024/01/13 04:37:03;;;;;;;94.10;39.73;;;-5.30;99.90;;;;;;5042317;28;20052;-83
2024/01/13 04:39:29;;;;;;;95.93;36.20;;;-5.30;99.90;;;;;;5041209;28;20036;-82
2024/01/13 04:41:54;;;;;;;102.27;39.13;;;-5.30;99.90;;;;;;5040536;28;20519;-81
2024/01/13 04:44:20;;;;;;;95.37;38.30;;;-5.40;99.90;;;;;;5041213;28;20044;-83
2024/01/13 04:46:46;;;;;;;92.73;35.80;;;-5.50;99.90;;;;;;5042334;28;20075;-81
2024/01/13 04:49:11;;;;;;;96.53;35.83;;;-5.40;99.90;;;;;;5041319;28;20073;-82
2024/01/13 04:51:37;;;;;;;80.00;32.50;;;-5.50;99.90;;;;;;5042224;28;20144;-84
2024/01/13 04:54:03;;;;;;;101.90;32.67;;;-5.50;99.90;;;;;;5041561;28;20763;-82
2024/01/13 04:56:29;;;;;;;83.97;34.43;;;-5.60;99.90;;;;;;5040318;28;20569;-83
2024/01/13 04:58:55;;;;;;;83.33;33.20;;;-5.60;99.90;;;;;;5042094;28;20168;-83
2024/01/13 05:01:20;;;;;;;93.20;34.50;;;-5.60;99.90;;;;;;5042354;28;20070;-81
2024/01/13 05:03:46;;;;;;;91.33;36.37;;;-5.60;99.90;;;;;;5040908;28;20033;-82
2024/01/13 05:06:12;;;;;;;96.63;38.17;;;-5.60;99.90;;;;;;5041132;28;20515;-81
2024/01/13 05:08:38;;;;;;;93.03;36.70;;;-5.60;99.90;;;;;;5044103;28;20101;-81
2024/01/13 05:11:03;;;;;;;104.00;37.13;;;-5.60;99.90;;;;;;5040873;28;20135;-82
2024/01/13 05:13:29;;;;;;;83.27;33.47;;;-5.60;99.90;;;;;;5039595;28;20091;-81
2024/01/13 05:15:54;;;;;;;82.33;33.77;;;-5.60;99.90;;;;;;5039606;28;20025;-80
2024/01/13 05:18:20;;;;;;;91.07;33.00;;;-5.60;99.90;;;;;;5040038;28;20178;-80
2024/01/13 05:20:45;;;;;;;87.20;33.73;;;-5.60;99.90;;;;;;5039729;28;20037;-80
2024/01/13 05:23:12;;;;;;;84.40;33.30;;;-5.70;99.90;;;;;;5039370;28;20040;-82
2024/01/13 05:25:39;;;;;;;87.73;34.50;;;-5.70;99.90;;;;;;5040271;28;20044;-81
2024/01/13 05:28:05;;;;;;;79.50;33.40;;;-5.70;99.90;;;;;;5038948;28;20416;-80
2024/01/13 05:30:32;;;;;;;85.53;34.90;;;-5.70;99.90;;;;;;5038915;28;20033;-80
2024/01/13 05:32:59;;;;;;;87.83;36.17;;;-5.70;99.90;;;;;;5037913;28;21126;-84
2024/01/13 05:35:25;;;;;;;93.00;36.50;;;-5.70;99.90;;;;;;5039602;28;20045;-81
2024/01/13 05:37:50;;;;;;;86.87;33.90;;;-5.70;99.90;;;;;;5038799;28;20009;-80
2024/01/13 05:40:16;;;;;;;88.00;35.93;;;-5.70;99.90;;;;;;5038770;28;20032;-82
2024/01/13 05:42:41;;;;;;;87.23;35.60;;;-5.70;99.90;;;;;;5038868;28;20033;-81
2024/01/13 05:45:08;;;;;;;84.57;35.43;;;-5.70;99.90;;;;;;5043120;28;20040;-80
2024/01/13 05:47:34;;;;;;;87.40;35.50;;;-5.70;99.90;;;;;;5041531;28;20701;-79
2024/01/13 05:50:00;;;;;;;90.83;36.30;;;-5.70;99.90;;;;;;5041798;28;20116;-81
2024/01/13 05:52:25;;;;;;;91.83;36.60;;;-5.70;99.90;;;;;;5043640;28;20079;-82
2024/01/13 05:54:51;;;;;;;86.23;34.77;;;-5.80;99.90;;;;;;5044190;28;20132;-81
2024/01/13 05:57:16;;;;;;;90.83;36.70;;;-5.70;99.90;;;;;;5044751;28;20074;-81
2024/01/13 05:59:42;;;;;;;85.90;36.23;;;-5.80;99.90;;;;;;5044370;28;21413;-82
2024/01/13 06:02:07;;;;;;;88.30;36.10;;;-5.80;99.90;;;;;;5043253;28;20032;-84
2024/01/13 06:04:33;;;;;;;86.63;35.77;;;-5.80;99.90;;;;;;5044181;28;20035;-82
2024/01/13 06:06:59;;;;;;;88.13;35.67;;;-5.80;99.90;;;;;;5043671;28;20062;-82
2024/01/13 06:09:24;;;;;;;87.33;35.90;;;-5.70;99.90;;;;;;5043040;28;20345;-83
2024/01/13 06:11:49;;;;;;;86.30;36.67;;;-5.70;99.90;;;;;;5044499;28;20045;-82
2024/01/13 06:14:15;;;;;;;95.73;34.83;;;-5.80;99.90;;;;;;5042839;28;20025;-81
2024/01/13 06:16:41;;;;;;;99.97;36.43;;;-5.80;99.90;;;;;;5040953;28;20631;-81
2024/01/13 06:19:06;;;;;;;95.37;37.07;;;-5.80;99.90;;;;;;5042967;28;20040;-82
2024/01/13 06:21:32;;;;;;;95.50;35.93;;;-5.80;99.90;;;;;;5043290;28;20038;-83
2024/01/13 06:23:59;;;;;;;90.93;35.50;;;-5.80;99.90;;;;;;5041630;28;20033;-82
2024/01/13 06:26:25;;;;;;;86.47;35.67;;;-5.90;99.90;;;;;;5042689;28;20048;-82
2024/01/13 06:28:51;;;;;;;99.93;36.23;;;-5.90;99.90;;;;;;5044026;28;20784;-81
2024/01/13 06:31:17;;;;;;;96.87;38.43;;;-5.90;99.90;;;;;;5043503;28;20123;-82
2024/01/13 06:33:42;;;;;;;108.07;40.30;;;-5.90;99.90;;;;;;5042695;28;20041;-82
2024/01/13 06:36:08;;;;;;;91.27;36.97;;;-5.90;99.90;;;;;;5043460;28;20029;-81
2024/01/13 06:38:33;;;;;;;103.13;38.93;;;-6.00;99.90;;;;;;5042963;28;20040;-81
2024/01/13 06:40:59;;;;;;;100.63;38.70;;;-5.90;99.90;;;;;;5044365;28;20025;-82
2024/01/13 06:43:24;;;;;;;101.90;41.60;;;-5.90;99.90;;;;;;5043004;28;20032;-81
2024/01/13 06:45:50;;;;;;;96.70;36.90;;;-5.90;99.90;;;;;;5041499;28;20080;-82
2024/01/13 06:48:16;;;;;;;91.93;37.73;;;-5.90;99.90;;;;;;5041262;28;20057;-82
2024/01/13 06:50:42;;;;;;;93.60;37.57;;;-5.90;99.90;;;;;;5044316;28;20032;-82
2024/01/13 06:53:09;;;;;;;96.13;37.93;;;-5.90;99.90;;;;;;5043296;28;20267;-83
2024/01/13 06:55:34;;;;;;;96.47;39.03;;;-5.80;99.90;;;;;;5043188;28;20029;-83
2024/01/13 06:58:00;;;;;;;97.87;38.73;;;-5.80;99.90;;;;;;5043585;28;20021;-82
2024/01/13 07:00:25;;;;;;;91.40;39.60;;;-5.80;99.90;;;;;;5045039;28;20036;-82
2024/01/13 07:02:52;;;;;;;96.17;37.80;;;-5.70;99.90;;;;;;5045137;28;20040;-84
2024/01/13 07:05:17;;;;;;;90.37;37.13;;;-5.70;99.90;;;;;;5054798;28;20029;-82
2024/01/13 07:07:43;;;;;;;93.30;38.83;;;-5.80;99.90;;;;;;5044537;28;20028;-82
2024/01/13 07:10:09;;;;;;;96.33;39.40;;;-5.70;99.90;;;;;;5041937;28;20068;-83
2024/01/13 07:12:35;;;;;;;80.37;34.23;;;-5.70;99.90;;;;;;5046545;28;20029;-82
2024/01/13 07:15:00;;;;;;;78.00;31.30;;;-5.70;99.90;;;;;;5045797;28;20549;-82
2024/01/13 07:17:26;;;;;;;82.53;32.53;;;-5.70;99.90;;;;;;5041717;28;20060;-82
2024/01/13 07:19:51;;;;;;;70.13;29.57;;;-5.70;99.90;;;;;;5042424;28;20063;-81
2024/01/13 07:22:17;;;;;;;70.50;31.10;;;-5.80;99.90;;;;;;5043246;28;20134;-82
2024/01/13 07:24:43;;;;;;;81.07;33.43;;;-5.80;99.90;;;;;;5042244;28;20060;-81
2024/01/13 07:27:09;;;;;;;88.27;33.30;;;-5.90;99.90;;;;;;5041789;28;20025;-82
2024/01/13 07:29:35;;;;;;;84.80;34.53;;;-5.90;99.90;;;;;;5043861;28;20150;-86
2024/01/13 07:32:01;;;;;;;88.57;34.53;;;-6.00;99.90;;;;;;5045306;28;20060;-83
2024/01/13 07:34:26;;;;;;;85.40;34.50;;;-5.90;99.90;;;;;;5042442;28;20126;-84
2024/01/13 07:36:52;;;;;;;86.93;33.90;;;-6.00;99.90;;;;;;5037833;28;20029;-83
2024/01/13 07:39:17;;;;;;;88.53;34.90;;;-5.90;99.90;;;;;;5039467;28;20036;-83
2024/01/13 07:41:44;;;;;;;82.73;33.87;;;-5.90;99.90;;;;;;5038969;28;20045;-84
2024/01/13 07:44:10;;;;;;;86.10;34.97;;;-5.90;99.90;;;;;;5039733;28;20124;-84
2024/01/13 07:46:41;;;;;;;81.43;34.63;;;-5.80;99.90;;;;;;5043306;28;20098;-84
2024/01/13 07:49:07;;;;;;;82.80;35.00;;;-5.80;99.90;;;;;;5038850;28;20025;-84
2024/01/13 07:51:33;;;;;;;81.03;33.63;;;-5.80;99.90;;;;;;5041933;28;20115;-84
2024/01/13 07:54:00;;;;;;;83.80;34.33;;;-5.70;99.90;;;;;;5041685;28;20520;-83
2024/01/13 07:56:25;;;;;;;89.50;35.43;;;-5.70;99.90;;;;;;5040419;28;20048;-83
2024/01/13 07:58:51;;;;;;;92.97;35.83;;;-5.70;99.90;;;;;;5041509;28;20017;-85
2024/01/13 08:01:18;;;;;;;86.90;36.43;;;-5.70;99.90;;;;;;5041423;28;20516;-83
2024/01/13 08:03:43;;;;;;;94.33;36.20;;;-5.70;99.90;;;;;;5040832;28;20039;-84
2024/01/13 08:06:09;;;;;;;85.87;35.40;;;-5.70;99.90;;;;;;5040947;28;20028;-86
2024/01/13 08:08:35;;;;;;;83.10;33.37;;;-5.60;99.90;;;;;;5039781;28;20033;-84
2024/01/13 08:11:00;;;;;;;83.57;34.90;;;-5.60;99.90;;;;;;5040945;28;20122;-83
2024/01/13 08:13:26;;;;;;;86.37;34.50;;;-5.70;99.90;;;;;;5039450;28;20476;-84
2024/01/13 08:15:51;;;;;;;87.43;34.80;;;-5.70;99.90;;;;;;5039442;28;20116;-84
2024/01/13 08:18:17;;;;;;;90.57;35.73;;;-5.60;99.90;;;;;;5038253;28;20010;-83
2024/01/13 08:20:42;;;;;;;81.40;34.73;;;-5.60;99.90;;;;;;5042173;28;20083;-84
2024/01/13 08:23:08;;;;;;;85.23;34.57;;;-5.50;99.90;;;;;;5038601;28;20025;-84
2024/01/13 08:25:33;;;;;;;79.73;32.67;;;-5.50;99.90;;;;;;5041609;28;20104;-86
2024/01/13 08:27:59;;;;;;;85.87;33.60;;;-5.50;99.90;;;;;;5039487;28;20048;-84
2024/01/13 08:30:24;;;;;;;80.77;34.23;;;-5.40;99.90;;;;;;5041240;28;20139;-83
2024/01/13 08:32:50;;;;;;;78.77;33.10;;;-5.40;99.90;;;;;;5040249;28;20020;-83
2024/01/13 08:35:15;;;;;;;88.90;37.13;;;-5.30;99.90;;;;;;5040818;28;20125;-84
2024/01/13 08:37:41;;;;;;;81.97;34.80;;;-5.40;99.90;;;;;;5041123;28;20058;-83
2024/01/13 08:40:08;;;;;;;81.53;32.97;;;-5.30;99.90;;;;;;5040128;28;20130;-83
2024/01/13 08:42:37;;;;;;;71.03;31.03;;;-5.30;99.90;;;;;;5040778;28;20163;-85
2024/01/13 08:45:03;;;;;;;77.90;33.60;;;-5.30;99.90;;;;;;5041703;28;20064;-87
2024/01/13 08:47:29;;;;;;;78.57;34.83;;;-5.30;99.90;;;;;;5041058;28;20063;-83
2024/01/13 08:49:55;;;;;;;78.63;33.93;;;-5.30;99.90;;;;;;5043848;28;20041;-84
2024/01/13 08:52:20;;;;;;;84.40;34.30;;;-5.20;99.90;;;;;;5042036;28;20013;-83
2024/01/13 08:54:46;;;;;;;85.17;33.47;;;-5.30;99.90;;;;;;5040781;28;20025;-84
2024/01/13 08:57:12;;;;;;;73.77;32.87;;;-5.20;99.90;;;;;;5041390;28;20176;-84
2024/01/13 08:59:38;;;;;;;75.67;32.77;;;-5.10;99.90;;;;;;5042018;28;20029;-84
2024/01/13 09:02:04;;;;;;;75.93;33.23;;;-5.00;99.90;;;;;;5052136;28;20040;-83
2024/01/13 09:04:30;;;;;;;74.90;32.87;;;-5.00;99.90;;;;;;5048537;28;20558;-82
2024/01/13 09:06:56;;;;;;;67.33;31.47;;;-5.00;99.90;;;;;;5040997;28;20025;-83
2024/01/13 09:09:21;;;;;;;73.83;32.27;;;-5.10;99.90;;;;;;5039664;28;20025;-83
2024/01/13 09:11:48;;;;;;;66.67;31.37;;;-5.10;99.90;;;;;;5040666;28;20079;-84
2024/01/13 09:14:13;;;;;;;63.80;29.97;;;-5.10;99.90;;;;;;5039468;28;20064;-85
2024/01/13 09:16:39;;;;;;;63.40;27.80;;;-5.10;99.90;;;;;;5041106;28;20120;-84
2024/01/13 09:19:04;;;;;;;60.80;28.67;;;-5.20;99.90;;;;;;5043596;28;20170;-84
2024/01/13 09:21:30;;;;;;;67.57;29.30;;;-5.20;99.90;;;;;;5045344;28;20561;-83
2024/01/13 09:23:57;;;;;;;66.00;28.93;;;-5.20;99.90;;;;;;5044312;28;20116;-84
2024/01/13 09:26:23;;;;;;;66.30;30.60;;;-5.20;99.90;;;;;;5043910;28;20797;-87
2024/01/13 09:28:49;;;;;;;64.77;28.67;;;-5.20;99.90;;;;;;5044784;28;20059;-85
2024/01/13 09:31:15;;;;;;;68.40;29.57;;;-5.20;99.90;;;;;;5045452;28;20465;-82
2024/01/13 09:33:41;;;;;;;61.90;28.63;;;-5.10;99.90;;;;;;5045900;28;20025;-83
2024/01/13 09:36:06;;;;;;;66.40;30.00;;;-5.10;99.90;;;;;;5045470;28;20071;-85
2024/01/13 09:38:32;;;;;;;60.90;29.30;;;-5.10;99.90;;;;;;5045429;28;20098;-85
2024/01/13 09:40:58;;;;;;;70.27;29.77;;;-5.10;99.90;;;;;;5045357;28;20110;-83
2024/01/13 09:43:37;;;;;;;67.50;32.40;;;-5.00;99.90;;;;;;5045772;28;20326;-82
2024/01/13 09:46:03;;;;;;;67.60;29.87;;;-5.00;99.90;;;;;;5046344;28;20178;-84
2024/01/13 09:48:29;;;;;;;66.37;28.30;;;-4.90;99.90;;;;;;5043154;28;20233;-84
2024/01/13 09:50:57;;;;;;;57.20;28.30;;;-4.80;99.90;;;;;;5044361;28;20115;-83
2024/01/13 09:53:30;;;;;;;53.83;27.03;;;-4.70;99.90;;;;;;5042831;28;20099;-83
2024/01/13 09:56:05;;;;;;;59.50;29.13;;;-4.60;99.90;;;;;;5045488;28;20574;-83
2024/01/13 09:58:31;;;;;;;58.63;27.30;;;-4.60;99.90;;;;;;5044667;28;20027;-82
2024/01/13 10:00:59;;;;;;;64.30;28.53;;;-4.50;99.90;;;;;;5046273;28;20071;-82
2024/01/13 10:03:25;;;;;;;52.97;26.17;;;-4.60;99.90;;;;;;5046019;28;20879;-84
2024/01/13 10:05:52;;;;;;;51.13;25.80;;;-4.50;99.90;;;;;;5045659;28;20045;-86
2024/01/13 10:08:30;;;;;;;46.80;24.60;;;-4.50;99.90;;;;;;5044956;28;20033;-83
2024/01/13 10:10:56;;;;;;;48.50;24.67;;;-4.50;99.90;;;;;;5043367;28;20342;-83
2024/01/13 10:13:25;;;;;;;50.90;26.20;;;-4.50;99.90;;;;;;5046002;28;20032;-83
2024/01/13 10:15:53;;;;;;;56.47;26.20;;;-4.50;99.90;;;;;;5045840;28;20121;-83
2024/01/13 10:18:23;;;;;;;58.03;27.97;;;-4.50;99.90;;;;;;5045189;28;20033;-82
2024/01/13 10:20:50;;;;;;;57.00;26.63;;;-4.60;99.90;;;;;;5045769;28;20423;-84
2024/01/13 10:23:16;;;;;;;55.83;26.33;;;-4.70;99.90;;;;;;5043210;28;20476;-86
2024/01/13 10:25:43;;;;;;;56.27;24.10;;;-4.70;99.90;;;;;;5047456;28;20029;-87
2024/01/13 10:28:09;;;;;;;52.80;24.47;;;-4.70;99.90;;;;;;5047470;28;20025;-82
2024/01/13 10:30:34;;;;;;;55.83;26.00;;;-4.70;99.90;;;;;;5049913;28;20110;-82
2024/01/13 10:33:00;;;;;;;53.43;24.67;;;-4.70;99.90;;;;;;5052644;28;20780;-82
2024/01/13 10:35:29;;;;;;;52.73;25.77;;;-4.80;99.90;;;;;;5048489;28;20059;-82
2024/01/13 10:37:58;;;;;;;55.33;24.90;;;-4.80;99.90;;;;;;5044165;28;20484;-81
2024/01/13 10:40:24;;;;;;;50.20;24.13;;;-4.80;99.90;;;;;;5043294;28;20036;-82
2024/01/13 10:42:56;;;;;;;56.30;25.40;;;-4.70;99.90;;;;;;5043087;28;20021;-82
2024/01/13 10:45:25;;;;;;;57.90;25.87;;;-4.60;99.90;;;;;;5044910;28;20040;-82
2024/01/13 10:48:02;;;;;;;52.47;22.90;;;-4.60;99.90;;;;;;5043786;28;20013;-82
2024/01/13 10:50:30;;;;;;;49.93;23.53;;;-4.50;99.90;;;;;;5042556;28;20065;-82
2024/01/13 10:53:16;;;;;;;55.33;24.83;;;-4.50;99.90;;;;;;5043395;28;20025;-83
2024/01/13 10:55:43;;;;;;;50.40;23.17;;;-4.50;99.90;;;;;;5042712;28;20036;-83
2024/01/13 10:58:09;;;;;;;50.03;22.97;;;-4.50;99.90;;;;;;5056735;28;20021;-85
2024/01/13 11:00:37;;;;;;;51.13;22.90;;;-4.50;99.90;;;;;;5052346;28;20143;-82
2024/01/13 11:03:03;;;;;;;47.77;23.73;;;-4.50;99.90;;;;;;5043217;28;20028;-82
2024/01/13 11:05:30;;;;;;;48.20;23.17;;;-4.50;99.90;;;;;;5041593;28;20068;-82
2024/01/13 11:07:55;;;;;;;41.87;20.37;;;-4.40;99.90;;;;;;5041301;28;20020;-83
2024/01/13 11:10:32;;;;;;;37.47;19.60;;;-4.40;99.90;;;;;;5040344;28;20041;-84
2024/01/13 11:13:29;;;;;;;36.03;17.70;;;-4.40;99.90;;;;;;5039483;28;20040;-84
2024/01/13 11:16:12;;;;;;;35.40;17.70;;;-4.40;99.90;;;;;;5041611;28;20088;-86
2024/01/13 11:18:45;;;;;;;37.20;17.43;;;-4.30;99.90;;;;;;5041002;28;20036;-83
2024/01/13 11:21:11;;;;;;;30.30;17.20;;;-4.30;99.90;;;;;;5042014;28;20110;-82
2024/01/13 11:23:56;;;;;;;30.60;15.53;;;-4.30;99.90;;;;;;5041022;28;20021;-84
2024/01/13 11:26:32;;;;;;;29.73;15.50;;;-4.30;99.90;;;;;;5041344;28;20515;-87
2024/01/13 11:28:57;;;;;;;31.80;16.90;;;-4.20;99.90;;;;;;5039935;28;20073;-82
2024/01/13 11:31:40;;;;;;;34.53;17.13;;;-4.20;99.90;;;;;;5042003;28;20054;-82
2024/01/13 11:34:12;;;;;;;30.30;16.10;;;-4.20;99.90;;;;;;5040759;28;20093;-83
2024/01/13 11:36:44;;;;;;;28.63;16.07;;;-4.10;99.90;;;;;;5041129;28;20403;-82
2024/01/13 11:39:10;;;;;;;30.80;16.37;;;-4.10;99.90;;;;;;5042170;28;20056;-82
2024/01/13 11:41:48;;;;;;;31.17;16.20;;;-4.20;99.90;;;;;;5041494;28;20028;-83
2024/01/13 11:44:22;;;;;;;27.97;14.97;;;-4.10;99.90;;;;;;5040431;28;20039;-85
2024/01/13 11:47:07;;;;;;;29.30;15.53;;;-4.10;99.90;;;;;;5041527;28;20091;-84
2024/01/13 11:49:38;;;;;;;30.02;16.13;;;-4.10;99.90;;;;;;5040466;28;20029;-82
2024/01/13 11:52:09;;;;;;;30.50;15.67;;;-4.10;99.90;;;;;;5041827;28;20086;-84
2024/01/13 11:54:35;;;;;;;29.50;15.43;;;-4.10;99.90;;;;;;5041531;28;20028;-84
2024/01/13 11:57:09;;;;;;;33.47;15.27;;;-4.10;99.90;;;;;;5041245;28;20025;-83
2024/01/13 11:59:34;;;;;;;29.87;15.07;;;-4.10;99.90;;;;;;5040372;28;20060;-82
2024/01/13 12:02:00;;;;;;;29.17;14.90;;;-4.10;99.90;;;;;;5041270;28;20108;-82
2024/01/13 12:04:29;;;;;;;31.40;14.67;;;-4.10;99.90;;;;;;5041592;28;20029;-84
2024/01/13 12:06:56;;;;;;;32.57;15.30;;;-4.10;99.90;;;;;;5041098;28;20509;-83
2024/01/13 12:09:22;;;;;;;31.30;14.63;;;-4.00;99.90;;;;;;5039864;28;20029;-83
2024/01/13 12:11:56;;;;;;;33.53;15.13;;;-4.10;99.90;;;;;;5041866;28;20124;-82
2024/01/13 12:14:29;;;;;;;36.50;17.13;;;-4.20;99.90;;;;;;5042300;28;20037;-84
2024/01/13 12:16:56;;;;;;;33.30;15.50;;;-4.20;99.90;;;;;;5042537;28;20021;-82
2024/01/13 12:19:23;;;;;;;33.63;15.77;;;-4.10;99.90;;;;;;5046698;28;20056;-84
2024/01/13 12:21:49;;;;;;;33.77;16.23;;;-4.00;99.90;;;;;;5042401;28;20786;-82